Time;durP1;ratioP1;P1;durP2;ratioP2;P2;SDS_P1;SDS_P2;PMS_P1;PMS_P2;Temp;Humidity;BMP_temperature;BMP_pressure;BME280_temperature;BME280_humidity;BME280_pressure;Samples;Min_cycle;Max_cycle;Signal;HPM_P1;HPM_P2
2023/05/01 00:02:20;;;;;;;;;;;;;;;11.87;67.28;101779.13;5023358;27;19925;-45
2023/05/01 00:04:45;;;;;;;;;;;;;;;11.88;67.35;101780.00;5017287;28;19935;-44
2023/05/01 00:07:11;;;;;;;;;;;;;;;11.86;67.15;101777.38;5021056;28;20275;-43
2023/05/01 00:09:37;;;;;;;;;;;;;;;11.84;67.83;101771.31;5018022;27;19928;-44
2023/05/01 00:12:02;;;;;;;;;;;;;;;11.84;67.51;101767.84;5018213;28;19921;-44
2023/05/01 00:14:28;;;;;;;;;;;;;;;11.83;67.05;101759.25;5017892;28;19936;-44
2023/05/01 00:16:53;;;;;;;;;;;;;;;11.82;67.40;101755.75;5021191;28;19932;-43
2023/05/01 00:19:18;;;;;;;;;;;;;;;11.83;67.09;101754.09;5016470;28;19925;-43
2023/05/01 00:21:47;;;;;;;;;;;;;;;11.79;67.22;101750.47;5020055;28;19929;-43
2023/05/01 00:24:12;;;;;;;;;;;;;;;11.79;67.07;101747.91;5019473;28;20386;-43
2023/05/01 00:26:38;;;;;;;;;;;;;;;11.78;67.44;101745.28;5016905;28;19926;-47
2023/05/01 00:29:03;;;;;;;;;;;;;;;11.77;67.09;101739.25;5017984;28;20288;-42
2023/05/01 00:31:28;;;;;;;;;;;;;;;11.76;67.44;101739.16;5018925;28;19925;-43
2023/05/01 00:33:54;;;;;;;;;;;;;;;11.75;67.14;101735.72;5021638;27;20375;-44
2023/05/01 00:36:19;;;;;;;;;;;;;;;11.75;66.99;101732.25;5020714;28;20290;-44
2023/05/01 00:38:45;;;;;;;;;;;;;;;11.74;67.31;101725.38;5016374;28;19938;-46
2023/05/01 00:41:10;;;;;;;;;;;;;;;11.73;67.62;101729.63;5034800;28;19978;-46
2023/05/01 00:43:35;;;;;;;;;;;;;;;11.74;67.47;101726.25;5025629;28;19949;-44
2023/05/01 00:46:01;;;;;;;;;;;;;;;11.72;67.44;101727.88;5019062;27;19929;-45
2023/05/01 00:48:26;;;;;;;;;;;;;;;11.70;67.91;101721.78;5017054;27;20474;-46
2023/05/01 00:50:53;;;;;;;;;;;;;;;11.68;68.04;101714.84;5017913;27;20266;-44
2023/05/01 00:53:19;;;;;;;;;;;;;;;11.65;68.36;101719.84;5015979;27;19929;-43
2023/05/01 00:55:44;;;;;;;;;;;;;;;11.65;67.84;101712.13;5024444;28;20005;-45
2023/05/01 00:58:11;;;;;;;;;;;;;;;11.63;68.32;101712.06;5017513;27;20019;-43
2023/05/01 01:00:36;;;;;;;;;;;;;;;11.60;68.37;101706.81;5017644;28;19926;-44
2023/05/01 01:03:03;;;;;;;;;;;;;;;11.59;67.89;101699.94;5017076;27;20397;-43
2023/05/01 01:05:31;;;;;;;;;;;;;;;11.57;68.20;101705.81;5017577;27;19936;-44
2023/05/01 01:08:12;;;;;;;;;;;;;;;11.57;68.56;101698.09;5017206;28;19963;-43
2023/05/01 01:11:13;;;;;;;;;;;;;;;11.53;68.84;101698.00;5014509;27;19944;-43
2023/05/01 01:13:47;;;;;;;;;;;;;;;11.53;68.76;101694.53;4940953;28;19933;-44
2023/05/01 01:16:20;;;;;;;;;;;;;;;11.50;68.65;101690.13;5005839;28;19973;-43
2023/05/01 01:18:55;;;;;;;;;;;;;;;11.48;68.68;101685.75;5017575;28;19925;-45
2023/05/01 01:21:29;;;;;;;;;;;;;;;11.47;68.73;101682.31;5017717;28;20016;-45
2023/05/01 01:24:13;;;;;;;;;;;;;;;11.46;69.53;101687.38;5020008;28;20376;-43
2023/05/01 01:26:44;;;;;;;;;;;;;;;11.44;69.35;101679.59;5017233;28;19925;-43
2023/05/01 01:29:09;;;;;;;;;;;;;;;11.44;69.56;101673.59;5018956;28;19925;-44
2023/05/01 01:31:56;;;;;;;;;;;;;;;11.44;69.56;101673.59;5015473;28;20302;-43
2023/05/01 01:34:26;;;;;;;;;;;;;;;11.42;69.46;101665.81;5016317;28;19917;-54
2023/05/01 01:36:54;;;;;;;;;;;;;;;11.40;69.29;101667.44;5017609;28;20145;-53
2023/05/01 01:39:35;;;;;;;;;;;;;;;11.38;69.28;101656.19;5018576;28;20028;-55
2023/05/01 01:42:02;;;;;;;;;;;;;;;11.34;69.40;101656.91;5019917;28;19932;-53
2023/05/01 01:44:28;;;;;;;;;;;;;;;11.32;69.90;101658.56;5017560;28;20443;-52
2023/05/01 01:46:53;;;;;;;;;;;;;;;11.31;69.79;101650.78;5018179;28;19931;-53
2023/05/01 01:49:20;;;;;;;;;;;;;;;11.28;70.37;101649.84;5017489;28;19917;-53
2023/05/01 01:51:46;;;;;;;;;;;;;;;11.28;70.42;101651.53;5018527;28;19921;-54
2023/05/01 01:54:13;;;;;;;;;;;;;;;11.24;70.65;101640.25;5016800;28;19978;-53
2023/05/01 01:56:40;;;;;;;;;;;;;;;11.23;70.25;101637.63;5016739;28;20008;-54
2023/05/01 01:59:06;;;;;;;;;;;;;;;11.22;70.23;101643.56;5018104;28;19921;-54
2023/05/01 02:01:33;;;;;;;;;;;;;;;11.22;70.14;101635.84;5013763;28;19937;-54
2023/05/01 02:03:59;;;;;;;;;;;;;;;11.20;70.68;101625.50;5020005;28;19921;-56
2023/05/01 02:06:26;;;;;;;;;;;;;;;11.20;70.42;101634.91;5019655;28;19925;-54
2023/05/01 02:08:52;;;;;;;;;;;;;;;11.16;70.24;101626.22;5016407;28;19957;-54
2023/05/01 02:11:19;;;;;;;;;;;;;;;11.13;70.66;101626.09;5020995;28;19916;-54
2023/05/01 02:13:46;;;;;;;;;;;;;;;11.11;70.64;101616.56;5020457;28;20330;-55
2023/05/01 02:16:12;;;;;;;;;;;;;;;11.10;71.00;101617.34;5017843;28;19921;-53
2023/05/01 02:18:39;;;;;;;;;;;;;;;11.08;70.52;101614.72;5017190;28;19982;-55
2023/05/01 02:21:04;;;;;;;;;;;;;;;11.07;70.54;101615.56;5017818;28;19917;-54
2023/05/01 02:23:32;;;;;;;;;;;;;;;11.08;70.71;101611.28;5016887;28;20028;-55
2023/05/01 02:25:59;;;;;;;;;;;;;;;11.07;71.47;101615.56;5016695;28;19921;-53
2023/05/01 02:28:26;;;;;;;;;;;;;;;11.07;70.90;101613.00;5018364;28;20643;-54
2023/05/01 02:30:51;;;;;;;;;;;;;;;11.04;70.86;101607.72;5022540;28;19917;-53
2023/05/01 02:33:17;;;;;;;;;;;;;;;11.03;71.15;101603.38;5015486;28;20679;-53
2023/05/01 02:35:43;;;;;;;;;;;;;;;11.02;71.31;101601.63;5014991;28;20360;-54
2023/05/01 02:38:09;;;;;;;;;;;;;;;11.01;70.74;101605.03;5017479;28;19946;-54
2023/05/01 02:40:35;;;;;;;;;;;;;;;10.99;71.33;101598.97;5015531;28;19948;-49
2023/05/01 02:43:03;;;;;;;;;;;;;;;10.97;71.27;101592.84;5016601;28;19960;-43
2023/05/01 02:45:29;;;;;;;;;;;;;;;10.96;71.94;101596.25;5014560;28;20013;-46
2023/05/01 02:47:56;;;;;;;;;;;;;;;10.97;71.16;101588.59;5016106;27;20419;-45
2023/05/01 02:50:22;;;;;;;;;;;;;;;10.96;71.80;101588.53;5020277;28;19937;-44
2023/05/01 02:52:48;;;;;;;;;;;;;;;10.92;71.80;101576.38;5018340;27;19924;-44
2023/05/01 02:55:14;;;;;;;;;;;;;;;10.92;71.29;101582.41;5018089;28;19953;-45
2023/05/01 02:57:40;;;;;;;;;;;;;;;10.90;71.75;101570.28;5020498;27;19925;-44
2023/05/01 03:00:08;;;;;;;;;;;;;;;10.87;71.97;101573.63;5020938;27;20016;-43
2023/05/01 03:02:33;;;;;;;;;;;;;;;10.85;71.79;101567.53;5021062;28;19930;-43
2023/05/01 03:04:59;;;;;;;;;;;;;;;10.81;71.92;101569.97;5022170;27;19941;-43
2023/05/01 03:07:24;;;;;;;;;;;;;;;10.78;72.65;101569.81;5021116;28;19929;-45
2023/05/01 03:09:49;;;;;;;;;;;;;;;10.77;72.18;101565.50;5037226;27;20016;-45
2023/05/01 03:12:14;;;;;;;;;;;;;;;10.74;72.16;101567.16;5021381;27;19974;-43
2023/05/01 03:14:40;;;;;;;;;;;;;;;10.73;72.46;101557.66;5019201;27;19929;-45
2023/05/01 03:17:05;;;;;;;;;;;;;;;10.72;72.75;101561.03;5020911;28;20303;-47
2023/05/01 03:19:31;;;;;;;;;;;;;;;10.71;72.62;101558.44;5020929;28;19925;-44
2023/05/01 03:21:56;;;;;;;;;;;;;;;10.69;73.09;101553.22;5020958;28;20016;-46
2023/05/01 03:24:23;;;;;;;;;;;;;;;10.69;72.79;101555.81;5018347;27;20346;-44
2023/05/01 03:26:48;;;;;;;;;;;;;;;10.68;73.45;101550.59;5019351;27;19962;-42
2023/05/01 03:29:13;;;;;;;;;;;;;;;10.64;72.75;101534.16;5020855;27;19921;-44
2023/05/01 03:31:38;;;;;;;;;;;;;;;10.65;72.96;101542.75;5023177;27;19931;-44
2023/05/01 03:34:04;;;;;;;;;;;;;;;10.64;73.48;101538.44;5020793;27;21057;-44
2023/05/01 03:36:29;;;;;;;;;;;;;;;10.61;73.41;101541.75;5021800;27;19936;-44
2023/05/01 03:38:54;;;;;;;;;;;;;;;10.61;72.91;101536.59;5021226;27;20345;-45
2023/05/01 03:41:20;;;;;;;;;;;;;;;10.60;73.61;101537.44;5020813;27;19969;-44
2023/05/01 03:43:45;;;;;;;;;;;;;;;10.60;73.28;101539.13;5020327;27;20057;-44
2023/05/01 03:46:11;;;;;;;;;;;;;;;10.57;73.42;101532.19;5021076;27;19968;-44
2023/05/01 03:48:36;;;;;;;;;;;;;;;10.56;73.56;101530.44;5018711;27;19925;-44
2023/05/01 03:51:01;;;;;;;;;;;;;;;10.56;74.33;101529.56;5017200;27;20008;-44
2023/05/01 03:53:26;;;;;;;;;;;;;;;10.56;73.46;101525.28;5017839;27;19921;-44
2023/05/01 03:55:52;;;;;;;;;;;;;;;10.55;73.93;101525.22;5018352;27;19940;-44
2023/05/01 03:58:17;;;;;;;;;;;;;;;10.53;73.79;101522.59;5017580;27;19978;-46
2023/05/01 04:00:44;;;;;;;;;;;;;;;10.53;73.71;101516.56;5017281;28;20173;-44
2023/05/01 04:03:09;;;;;;;;;;;;;;;10.52;73.96;101515.69;5021519;27;20359;-43
2023/05/01 04:05:34;;;;;;;;;;;;;;;10.52;74.75;101512.25;5018579;28;19925;-53
2023/05/01 04:08:00;;;;;;;;;;;;;;;10.51;74.35;101518.22;5022388;27;19978;-56
2023/05/01 04:10:25;;;;;;;;;;;;;;;10.50;74.81;101519.91;5099019;27;19929;-53
2023/05/01 04:12:50;;;;;;;;;;;;;;;10.50;74.27;101524.19;5019390;28;19921;-53
2023/05/01 04:15:16;;;;;;;;;;;;;;;10.48;74.83;101513.81;5017358;27;20337;-53
2023/05/01 04:17:42;;;;;;;;;;;;;;;10.49;75.22;101515.56;5019106;28;19935;-55
2023/05/01 04:20:08;;;;;;;;;;;;;;;10.47;74.93;101517.22;5019067;28;19921;-54
2023/05/01 04:22:33;;;;;;;;;;;;;;;10.44;75.78;101509.38;5017875;28;20391;-53
2023/05/01 04:24:58;;;;;;;;;;;;;;;10.43;75.21;101516.22;5103805;27;19928;-53
2023/05/01 04:27:24;;;;;;;;;;;;;;;10.41;76.33;101522.09;5017010;28;19975;-56
2023/05/01 04:29:49;;;;;;;;;;;;;;;10.36;76.12;101519.34;5020983;28;19925;-53
2023/05/01 04:32:16;;;;;;;;;;;;;;;10.34;76.33;101514.97;5018093;28;20300;-53
2023/05/01 04:34:42;;;;;;;;;;;;;;;10.32;76.60;101512.34;5018971;28;20062;-54
2023/05/01 04:37:08;;;;;;;;;;;;;;;10.29;76.04;101514.78;5018902;28;20014;-53
2023/05/01 04:39:33;;;;;;;;;;;;;;;10.29;76.94;101511.34;5017394;28;20053;-53
2023/05/01 04:41:59;;;;;;;;;;;;;;;10.30;76.92;101516.53;5016780;28;20545;-53
2023/05/01 04:44:24;;;;;;;;;;;;;;;10.29;77.04;101526.78;5018690;28;20393;-53
2023/05/01 04:46:50;;;;;;;;;;;;;;;10.30;76.79;101520.81;5036202;27;19929;-45
2023/05/01 04:49:15;;;;;;;;;;;;;;;10.30;76.91;101521.69;5021198;27;20003;-43
2023/05/01 04:51:40;;;;;;;;;;;;;;;10.31;76.63;101520.00;5017528;27;19921;-46
2023/05/01 04:54:06;;;;;;;;;;;;;;;10.32;77.11;101524.34;5014698;28;19974;-45
2023/05/01 04:56:31;;;;;;;;;;;;;;;10.31;76.48;101522.56;5019153;27;19991;-44
2023/05/01 04:58:56;;;;;;;;;;;;;;;10.31;76.20;101518.28;5017728;27;19929;-43
2023/05/01 05:01:21;;;;;;;;;;;;;;;10.35;76.63;101516.72;5017134;28;19925;-44
2023/05/01 05:03:47;;;;;;;;;;;;;;;10.36;75.11;101509.06;5017195;27;20012;-45
2023/05/01 05:06:12;;;;;;;;;;;;;;;10.39;76.33;101518.63;5021548;27;19968;-45
2023/05/01 05:08:38;;;;;;;;;;;;;;;10.41;75.52;101512.69;5017344;27;19929;-44
2023/05/01 05:11:03;;;;;;;;;;;;;;;10.41;75.90;101512.69;5014956;28;19922;-45
2023/05/01 05:13:28;;;;;;;;;;;;;;;10.42;76.62;101516.16;5018528;28;19921;-45
2023/05/01 05:15:54;;;;;;;;;;;;;;;10.43;75.88;101512.75;5013594;27;19944;-45
2023/05/01 05:18:19;;;;;;;;;;;;;;;10.44;75.27;101509.38;5019440;28;19932;-43
2023/05/01 05:20:45;;;;;;;;;;;;;;;10.45;75.63;101504.31;5017428;28;19932;-47
2023/05/01 05:23:10;;;;;;;;;;;;;;;10.47;75.15;101507.78;5016701;28;19929;-46
2023/05/01 05:25:36;;;;;;;;;;;;;;;10.48;76.03;101509.53;5017071;28;19981;-44
2023/05/01 05:28:01;;;;;;;;;;;;;;;10.51;75.39;101516.53;5020293;27;19922;-44
2023/05/01 05:30:26;;;;;;;;;;;;;;;10.53;75.54;101509.72;5017632;27;19922;-44
2023/05/01 05:32:52;;;;;;;;;;;;;;;10.55;75.92;101514.91;5023097;28;19936;-43
2023/05/01 05:35:17;;;;;;;;;;;;;;;10.56;75.60;101517.56;5018156;28;19926;-45
2023/05/01 05:37:42;;;;;;;;;;;;;;;10.59;75.50;101509.97;5013996;28;19960;-44
2023/05/01 05:40:08;;;;;;;;;;;;;;;10.64;75.04;101505.88;5016705;27;19921;-44
2023/05/01 05:42:33;;;;;;;;;;;;;;;10.71;75.33;101515.56;5016370;27;19925;-45
2023/05/01 05:44:59;;;;;;;;;;;;;;;10.77;75.50;101516.63;5012995;28;20001;-45
2023/05/01 05:47:24;;;;;;;;;;;;;;;10.83;75.31;101514.28;5019433;27;19933;-53
2023/05/01 05:49:49;;;;;;;;;;;;;;;10.91;75.27;101511.16;5016153;27;19937;-53
2023/05/01 05:52:15;;;;;;;;;;;;;;;10.98;75.03;101509.69;5014952;28;19925;-53
2023/05/01 05:54:40;;;;;;;;;;;;;;;11.06;74.75;101507.41;5014000;28;19955;-53
2023/05/01 05:57:05;;;;;;;;;;;;;;;11.13;74.37;101502.53;5015224;28;20399;-54
2023/05/01 05:59:31;;;;;;;;;;;;;;;11.22;74.69;101507.13;5013877;28;19921;-52
2023/05/01 06:01:56;;;;;;;;;;;;;;;11.28;74.25;101497.94;5014228;28;19999;-53
2023/05/01 06:04:21;;;;;;;;;;;;;;;11.38;74.06;101499.13;5012127;28;19917;-54
2023/05/01 06:06:47;;;;;;;;;;;;;;;11.44;73.58;101499.34;5014873;28;19921;-53
2023/05/01 06:09:13;;;;;;;;;;;;;;;11.49;74.01;101496.94;5018629;28;19936;-54
2023/05/01 06:11:38;;;;;;;;;;;;;;;11.57;74.12;101497.19;5031539;28;19921;-58
2023/05/01 06:14:04;;;;;;;;;;;;;;;11.65;73.98;101495.72;5017122;28;20453;-54
2023/05/01 06:16:29;;;;;;;;;;;;;;;11.71;73.68;101498.50;5017467;28;20307;-53
2023/05/01 06:18:54;;;;;;;;;;;;;;;11.75;73.66;101498.69;5016694;28;19928;-53
2023/05/01 06:21:20;;;;;;;;;;;;;;;11.79;73.69;101503.13;5017264;28;19923;-53
2023/05/01 06:23:45;;;;;;;;;;;;;;;11.84;73.39;101505.00;5021862;28;19929;-52
2023/05/01 06:26:11;;;;;;;;;;;;;;;11.86;73.17;101503.34;5044560;28;20020;-53
2023/05/01 06:28:36;;;;;;;;;;;;;;;11.82;73.20;101499.78;5019400;28;19965;-53
2023/05/01 06:31:02;;;;;;;;;;;;;;;11.86;73.46;101505.94;5021496;28;20037;-53
2023/05/01 06:33:27;;;;;;;;;;;;;;;11.87;73.20;101500.81;5022108;28;19964;-53
2023/05/01 06:35:53;;;;;;;;;;;;;;;11.90;73.05;101502.63;5035882;28;20398;-54
2023/05/01 06:38:19;;;;;;;;;;;;;;;11.88;73.25;101504.28;5020339;28;19929;-54
2023/05/01 06:40:46;;;;;;;;;;;;;;;11.90;73.13;101500.06;5019962;28;20407;-52
2023/05/01 06:43:11;;;;;;;;;;;;;;;11.98;73.04;101503.75;5020153;28;19933;-53
2023/05/01 06:45:38;;;;;;;;;;;;;;;12.00;73.25;101502.09;5019569;28;19936;-52
2023/05/01 06:48:04;;;;;;;;;;;;;;;12.05;73.23;101503.13;5020177;28;19940;-53
2023/05/01 06:50:29;;;;;;;;;;;;;;;12.11;73.23;101495.59;5018894;28;19926;-53
2023/05/01 06:52:54;;;;;;;;;;;;;;;12.21;73.22;101491.59;5020474;28;19924;-54
2023/05/01 06:55:20;;;;;;;;;;;;;;;12.33;73.00;101491.97;5019768;28;20446;-53
2023/05/01 06:57:45;;;;;;;;;;;;;;;12.44;72.58;101495.78;5026931;28;19929;-54
2023/05/01 07:00:11;;;;;;;;;;;;;;;12.52;72.50;101491.72;5019594;28;20430;-54
2023/05/01 07:02:36;;;;;;;;;;;;;;;12.62;72.28;101495.44;5018782;28;19929;-56
2023/05/01 07:05:02;;;;;;;;;;;;;;;12.72;71.97;101494.00;5018123;28;19933;-53
2023/05/01 07:07:29;;;;;;;;;;;;;;;12.80;71.74;101495.09;5019134;28;19925;-51
2023/05/01 07:09:55;;;;;;;;;;;;;;;12.80;71.41;101489.91;5017912;28;19985;-53
2023/05/01 07:12:21;;;;;;;;;;;;;;;12.80;71.62;101488.25;5019929;28;20012;-53
2023/05/01 07:14:46;;;;;;;;;;;;;;;12.85;71.69;101486.66;5018570;28;19975;-53
2023/05/01 07:17:12;;;;;;;;;;;;;;;12.92;71.79;101492.84;5020606;28;20347;-47
2023/05/01 07:19:37;;;;;;;;;;;;;;;12.96;71.57;101488.66;5042753;28;19924;-45
2023/05/01 07:22:03;;;;;;;;;;;;;;;13.06;71.21;101488.97;5019966;28;19925;-43
2023/05/01 07:24:28;;;;;;;;;;;;;;;13.19;70.65;101487.59;5018023;28;19988;-45
2023/05/01 07:26:55;;;;;;;;;;;;;;;13.22;70.83;101495.44;5019242;28;19928;-44
2023/05/01 07:29:20;;;;;;;;;;;;;;;13.37;71.11;101485.56;5016852;28;19982;-43
2023/05/01 07:31:47;;;;;;;;;;;;;;;13.54;70.58;101483.41;5021803;28;19963;-46
2023/05/01 07:34:12;;;;;;;;;;;;;;;13.71;70.59;101490.69;5021439;28;19921;-44
2023/05/01 07:36:37;;;;;;;;;;;;;;;13.85;70.66;101485.06;5018163;28;19917;-47
2023/05/01 07:39:03;;;;;;;;;;;;;;;14.10;68.85;101481.34;5019034;28;20586;-45
2023/05/01 07:41:29;;;;;;;;;;;;;;;14.27;68.48;101484.31;5019108;28;20278;-47
2023/05/01 07:43:57;;;;;;;;;;;;;;;14.43;68.41;101488.09;5020284;28;19929;-44
2023/05/01 07:46:22;;;;;;;;;;;;;;;14.55;67.41;101483.22;5016745;28;20260;-46
2023/05/01 07:48:47;;;;;;;;;;;;;;;14.69;67.73;101489.59;5019602;28;19929;-44
2023/05/01 07:51:13;;;;;;;;;;;;;;;14.81;68.32;101488.13;5019603;28;20912;-45
2023/05/01 07:53:41;;;;;;;;;;;;;;;14.92;68.17;101489.19;5019846;28;19957;-49
2023/05/01 07:56:07;;;;;;;;;;;;;;;15.02;67.58;101497.16;5017460;28;19921;-45
2023/05/01 07:58:33;;;;;;;;;;;;;;;15.25;67.28;101501.94;5020416;28;19932;-44
2023/05/01 08:00:59;;;;;;;;;;;;;;;15.61;67.25;101495.69;5024295;28;19929;-45
2023/05/01 08:03:26;;;;;;;;;;;;;;;15.84;66.08;101499.59;5021994;28;19917;-46
2023/05/01 08:05:51;;;;;;;;;;;;;;;15.94;65.61;101496.25;5019733;28;19918;-46
2023/05/01 08:08:19;;;;;;;;;;;;;;;16.01;65.09;101489.44;5017026;28;19928;-46
2023/05/01 08:10:44;;;;;;;;;;;;;;;15.90;65.36;101497.09;5022577;28;19940;-45
2023/05/01 08:13:10;;;;;;;;;;;;;;;15.97;65.07;101498.06;5020148;28;19967;-47
2023/05/01 08:15:37;;;;;;;;;;;;;;;16.14;63.73;101487.91;5020384;28;19925;-45
2023/05/01 08:18:03;;;;;;;;;;;;;;;16.31;63.37;101494.22;5022144;28;20057;-44
2023/05/01 08:20:28;;;;;;;;;;;;;;;16.52;64.74;101488.50;5016338;28;20042;-44
2023/05/01 08:22:53;;;;;;;;;;;;;;;16.84;61.73;101478.53;5021190;28;19927;-44
2023/05/01 08:25:18;;;;;;;;;;;;;;;17.16;61.20;101481.50;5021339;28;19921;-46
2023/05/01 08:27:44;;;;;;;;;;;;;;;17.35;60.03;101478.25;5023931;28;19933;-44
2023/05/01 08:30:09;;;;;;;;;;;;;;;17.34;57.15;101481.69;5018379;28;19932;-44
2023/05/01 08:32:35;;;;;;;;;;;;;;;17.53;59.28;101477.53;5024400;28;20892;-45
2023/05/01 08:35:00;;;;;;;;;;;;;;;17.62;57.57;101474.16;5024097;28;19928;-44
2023/05/01 08:37:25;;;;;;;;;;;;;;;17.61;59.34;101473.31;5022807;28;19943;-44
2023/05/01 08:39:51;;;;;;;;;;;;;;;17.49;59.37;101478.38;5024441;28;19933;-45
2023/05/01 08:42:16;;;;;;;;;;;;;;;17.52;60.21;101473.19;5022192;28;20413;-43
2023/05/01 08:44:42;;;;;;;;;;;;;;;17.71;60.09;101471.63;5024616;28;20004;-45
2023/05/01 08:47:14;;;;;;;;;;;;;;;17.79;58.77;101472.63;5026191;28;19961;-47
2023/05/01 08:49:43;;;;;;;;;;;;;;;17.81;56.68;101480.44;5021578;28;19932;-45
2023/05/01 08:52:13;;;;;;;;;;;;;;;17.67;56.72;101481.16;5024231;28;19917;-46
2023/05/01 08:54:38;;;;;;;;;;;;;;;17.58;59.12;101475.00;5022149;28;19932;-44
2023/05/01 08:57:05;;;;;;;;;;;;;;;17.56;59.09;101474.13;5024165;28;20004;-47
2023/05/01 08:59:33;;;;;;;;;;;;;;;17.61;59.31;101475.91;5023811;28;19997;-46
2023/05/01 09:02:05;;;;;;;;;;;;;;;17.67;56.96;101481.16;5026529;28;19989;-45
2023/05/01 09:04:34;;;;;;;;;;;;;;;17.61;57.96;101483.69;5025570;28;19932;-47
2023/05/01 09:07:00;;;;;;;;;;;;;;;17.61;58.19;101486.31;5026928;28;19917;-48
2023/05/01 09:09:26;;;;;;;;;;;;;;;17.74;57.25;101479.50;5023952;28;19924;-45
2023/05/01 09:11:54;;;;;;;;;;;;;;;17.87;59.03;101483.09;5023864;28;20000;-44
2023/05/01 09:14:19;;;;;;;;;;;;;;;17.88;58.01;101482.22;5024693;28;19925;-44
2023/05/01 09:16:45;;;;;;;;;;;;;;;17.82;55.99;101479.56;5022592;28;19925;-45
2023/05/01 09:19:10;;;;;;;;;;;;;;;17.90;56.94;101477.91;5020634;28;19989;-45
2023/05/01 09:21:35;;;;;;;;;;;;;;;18.05;56.10;101478.00;5024045;28;19921;-46
2023/05/01 09:24:01;;;;;;;;;;;;;;;18.13;56.85;101486.72;5024789;28;19921;-44
2023/05/01 09:26:26;;;;;;;;;;;;;;;18.15;57.37;101479.84;5030819;28;20037;-46
2023/05/01 09:28:56;;;;;;;;;;;;;;;18.17;57.58;101478.09;5019778;28;19921;-47
2023/05/01 09:31:29;;;;;;;;;;;;;;;18.15;56.70;101476.34;5019542;28;19921;-45
2023/05/01 09:33:54;;;;;;;;;;;;;;;18.18;57.25;101474.63;5039160;28;19925;-45
2023/05/01 09:36:19;;;;;;;;;;;;;;;18.20;55.45;101478.13;5021525;28;19970;-45
2023/05/01 09:38:45;;;;;;;;;;;;;;;18.30;55.94;101481.66;5022575;28;19921;-43
2023/05/01 09:41:10;;;;;;;;;;;;;;;18.46;54.61;101480.00;5020747;28;20303;-45
2023/05/01 09:43:35;;;;;;;;;;;;;;;18.49;55.93;101470.47;5022044;28;19923;-46
2023/05/01 09:46:04;;;;;;;;;;;;;;;18.46;56.44;101475.69;5022598;28;20414;-45
2023/05/01 09:48:29;;;;;;;;;;;;;;;18.57;57.59;101475.75;5021347;28;19928;-47
2023/05/01 09:50:55;;;;;;;;;;;;;;;18.84;55.96;101472.41;5022751;28;19928;-44
2023/05/01 09:53:32;;;;;;;;;;;;;;;19.16;55.97;101476.84;5022647;28;19969;-44
2023/05/01 09:56:01;;;;;;;;;;;;;;;19.37;54.13;101474.28;5021673;28;19928;-43
2023/05/01 09:58:27;;;;;;;;;;;;;;;19.48;54.99;101479.53;5014140;28;19926;-44
2023/05/01 10:00:52;;;;;;;;;;;;;;;19.53;52.30;101480.38;5021817;28;19917;-45
2023/05/01 10:03:17;;;;;;;;;;;;;;;19.22;52.96;101480.31;5022452;28;19936;-43
2023/05/01 10:05:43;;;;;;;;;;;;;;;19.20;54.40;101479.47;5023027;28;20022;-44
2023/05/01 10:08:13;;;;;;;;;;;;;;;19.13;53.40;101475.09;5021220;28;20393;-46
2023/05/01 10:10:39;;;;;;;;;;;;;;;19.08;54.84;101475.97;5021693;28;19968;-48
2023/05/01 10:13:14;;;;;;;;;;;;;;;19.15;54.97;101478.56;5019654;28;19982;-47
2023/05/01 10:15:40;;;;;;;;;;;;;;;19.25;54.64;101469.91;5016994;28;19956;-46
2023/05/01 10:18:06;;;;;;;;;;;;;;;19.34;52.03;101481.22;5017991;28;20466;-47
2023/05/01 10:20:31;;;;;;;;;;;;;;;19.27;50.39;101480.34;5015488;28;20447;-46
2023/05/01 10:22:58;;;;;;;;;;;;;;;19.25;51.54;101479.47;5016619;28;20019;-46
2023/05/01 10:25:24;;;;;;;;;;;;;;;19.37;51.80;101494.28;5017277;28;19966;-45
2023/05/01 10:27:50;;;;;;;;;;;;;;;19.02;53.16;101489.84;4998501;28;19964;-44
2023/05/01 10:30:16;;;;;;;;;;;;;;;18.83;53.84;101486.31;5015633;28;19963;-47
2023/05/01 10:32:41;;;;;;;;;;;;;;;18.76;53.46;101487.16;5015588;28;19925;-45
2023/05/01 10:35:11;;;;;;;;;;;;;;;18.61;54.80;101489.63;5017412;28;19921;-45
2023/05/01 10:37:39;;;;;;;;;;;;;;;18.51;55.41;101490.47;5014824;28;19921;-45
2023/05/01 10:40:23;;;;;;;;;;;;;;;18.52;55.31;101487.00;5020015;28;19945;-45
2023/05/01 10:43:17;;;;;;;;;;;;;;;18.38;55.44;101486.88;5013308;28;19971;-46
2023/05/01 10:45:43;;;;;;;;;;;;;;;18.37;55.15;101485.16;5008835;28;20002;-45
2023/05/01 10:48:09;;;;;;;;;;;;;;;18.39;55.52;101493.88;5014338;28;19921;-45
2023/05/01 10:50:34;;;;;;;;;;;;;;;18.49;54.91;101480.00;5017690;28;19929;-45
2023/05/01 10:53:09;;;;;;;;;;;;;;;18.56;55.32;101492.19;5014422;28;19921;-44
2023/05/01 10:55:35;;;;;;;;;;;;;;;18.66;54.68;101493.13;5016589;28;19923;-46
2023/05/01 10:58:00;;;;;;;;;;;;;;;18.64;53.60;101494.88;5015027;28;19928;-45
2023/05/01 11:00:25;;;;;;;;;;;;;;;18.57;53.37;101493.97;5024005;28;19939;-45
2023/05/01 11:02:50;;;;;;;;;;;;;;;18.60;53.60;101490.50;5018554;28;19937;-44
2023/05/01 11:05:16;;;;;;;;;;;;;;;18.62;54.09;101494.84;5018390;28;19925;-44
2023/05/01 11:07:41;;;;;;;;;;;;;;;18.71;52.19;101494.06;5013089;28;19956;-45
2023/05/01 11:10:24;;;;;;;;;;;;;;;18.78;50.97;101493.22;5020401;27;19928;-47
2023/05/01 11:12:50;;;;;;;;;;;;;;;18.84;51.29;101489.78;5036771;27;19921;-47
2023/05/01 11:15:25;;;;;;;;;;;;;;;18.85;52.01;101489.78;5019059;28;19940;-45
2023/05/01 11:17:51;;;;;;;;;;;;;;;18.82;51.16;101496.72;5019467;28;19925;-47
2023/05/01 11:20:25;;;;;;;;;;;;;;;18.83;52.01;101494.13;5019904;28;19962;-46
2023/05/01 11:22:52;;;;;;;;;;;;;;;18.92;52.11;101495.88;5022451;27;20380;-48
2023/05/01 11:25:17;;;;;;;;;;;;;;;18.97;50.44;101494.16;5017301;28;19962;-45
2023/05/01 11:28:09;;;;;;;;;;;;;;;18.97;50.49;101496.75;5021294;27;19917;-45
2023/05/01 11:30:38;;;;;;;;;;;;;;;19.02;49.74;101500.25;5016358;27;20306;-43
2023/05/01 11:33:04;;;;;;;;;;;;;;;19.01;50.21;101488.97;5027775;27;19927;-44
2023/05/01 11:35:29;;;;;;;;;;;;;;;19.03;49.92;101500.25;5021042;27;19925;-44
2023/05/01 11:37:54;;;;;;;;;;;;;;;18.99;49.02;101489.84;5019982;27;19925;-45
2023/05/01 11:40:24;;;;;;;;;;;;;;;18.88;50.19;101494.16;5015150;27;19982;-52
2023/05/01 11:42:50;;;;;;;;;;;;;;;19.00;49.65;101495.06;5017982;27;19929;-53
2023/05/01 11:45:16;;;;;;;;;;;;;;;19.16;49.83;101501.16;5020614;28;19925;-54
2023/05/01 11:47:41;;;;;;;;;;;;;;;19.17;49.57;101492.50;5024216;27;19931;-55
2023/05/01 11:50:07;;;;;;;;;;;;;;;19.30;49.04;101501.22;5021494;27;19921;-54
2023/05/01 11:52:47;;;;;;;;;;;;;;;19.28;47.40;101501.19;5017222;28;19968;-54
2023/05/01 11:55:13;;;;;;;;;;;;;;;19.18;49.69;101501.19;5017551;28;19921;-53
2023/05/01 11:57:45;;;;;;;;;;;;;;;19.04;49.29;101506.34;5020876;27;19928;-53
2023/05/01 12:00:11;;;;;;;;;;;;;;;18.74;50.87;101501.88;5019639;27;20426;-53
2023/05/01 12:02:36;;;;;;;;;;;;;;;18.74;50.93;101504.47;5019229;27;19925;-56
2023/05/01 12:05:15;;;;;;;;;;;;;;;18.78;50.08;101507.97;5017912;27;19929;-56
2023/05/01 12:07:40;;;;;;;;;;;;;;;18.75;50.05;101501.91;5019509;27;19939;-55
2023/05/01 12:10:06;;;;;;;;;;;;;;;18.84;50.87;101514.09;5018281;27;19949;-56
2023/05/01 12:12:31;;;;;;;;;;;;;;;18.78;50.87;101503.66;5021295;27;19933;-56
2023/05/01 12:14:57;;;;;;;;;;;;;;;18.70;50.79;101511.44;5019545;27;20361;-56
2023/05/01 12:17:22;;;;;;;;;;;;;;;18.41;50.94;101502.56;5020245;27;20364;-54
2023/05/01 12:19:48;;;;;;;;;;;;;;;18.31;50.89;101506.81;5018879;27;19925;-53
2023/05/01 12:22:13;;;;;;;;;;;;;;;18.33;51.03;101502.50;5021528;27;20308;-52
2023/05/01 12:24:47;;;;;;;;;;;;;;;18.47;49.93;101513.00;5017678;27;20008;-53
2023/05/01 12:27:13;;;;;;;;;;;;;;;18.49;50.00;101506.06;5019494;27;20387;-56
2023/05/01 12:29:38;;;;;;;;;;;;;;;18.59;50.39;101502.66;5019667;27;19970;-56
2023/05/01 12:32:04;;;;;;;;;;;;;;;18.78;48.13;101505.38;5018601;27;19929;-55
2023/05/01 12:34:32;;;;;;;;;;;;;;;18.74;48.73;101507.09;5016038;27;20461;-55